createdAt,value
2023-02-28T00:00:20.789Z,-3.37
2023-02-28T00:02:48.619Z,-3.37
2023-02-28T00:05:19.323Z,-3.38
2023-02-28T00:07:47.344Z,-3.41
2023-02-28T00:10:20.196Z,-3.40
2023-02-28T00:12:47.932Z,-3.44
2023-02-28T00:15:15.752Z,-3.44
2023-02-28T00:17:43.555Z,-3.50
2023-02-28T00:20:12.877Z,-3.51
2023-02-28T00:22:43.062Z,-3.50
2023-02-28T00:25:12.022Z,-3.56
2023-02-28T00:27:40.904Z,-3.53
2023-02-28T00:30:12.214Z,-3.54
2023-02-28T00:32:39.909Z,-3.53
2023-02-28T00:35:09.252Z,-3.54
2023-02-28T00:37:37.170Z,-3.58
2023-02-28T00:40:07.791Z,-3.54
2023-02-28T00:42:35.602Z,-3.53
2023-02-28T00:45:04.627Z,-3.59
2023-02-28T00:47:32.320Z,-3.61
2023-02-28T00:50:00.154Z,-3.60
2023-02-28T00:52:28.004Z,-3.60
2023-02-28T00:54:55.819Z,-3.62
2023-02-28T00:57:24.794Z,-3.65
2023-02-28T00:59:54.856Z,-3.65
2023-02-28T01:02:22.577Z,-3.67
2023-02-28T01:04:50.413Z,-3.70
2023-02-28T01:07:18.086Z,-3.78
2023-02-28T01:09:45.690Z,-3.78
2023-02-28T01:12:13.294Z,-3.79
2023-02-28T01:14:42.300Z,-3.76
2023-02-28T01:17:10.024Z,-3.75
2023-02-28T01:19:37.811Z,-3.79
2023-02-28T01:22:06.517Z,-3.77
2023-02-28T01:24:34.630Z,-3.79
2023-02-28T01:27:02.261Z,-3.87
2023-02-28T01:29:29.911Z,-3.88
2023-02-28T01:32:00.485Z,-3.92
2023-02-28T01:34:28.156Z,-3.91
2023-02-28T01:36:55.754Z,-3.94
2023-02-28T01:39:24.100Z,-3.95
2023-02-28T01:41:51.687Z,-3.96
2023-02-28T01:44:56.928Z,-3.95
2023-02-28T01:47:28.431Z,-4.00
2023-02-28T01:49:56.200Z,-3.98
2023-02-28T01:52:25.957Z,-3.99
2023-02-28T01:54:54.823Z,-4.08
2023-02-28T01:57:24.586Z,-4.11
2023-02-28T01:59:54.570Z,-4.14
2023-02-28T02:02:23.898Z,-4.15
2023-02-28T02:04:56.411Z,-4.15
2023-02-28T02:07:25.535Z,-4.12
2023-02-28T02:10:02.043Z,-4.13
2023-02-28T02:12:41.801Z,-4.15
2023-02-28T02:15:14.211Z,-4.17
2023-02-28T02:17:46.752Z,-4.21
2023-02-28T02:20:35.774Z,-4.35
2023-02-28T02:23:48.604Z,-4.38
2023-02-28T02:26:32.721Z,-4.35
2023-02-28T02:29:19.615Z,-4.34
2023-02-28T02:32:03.702Z,-4.33
2023-02-28T02:34:40.265Z,-4.36
2023-02-28T02:37:21.942Z,-4.39
2023-02-28T02:39:53.065Z,-4.37
2023-02-28T02:42:26.458Z,-4.39
2023-02-28T02:44:58.198Z,-4.42
2023-02-28T02:47:28.492Z,-4.48
2023-02-28T02:49:59.566Z,-4.45
2023-02-28T02:52:32.205Z,-4.45
2023-02-28T02:55:01.292Z,-4.48
2023-02-28T02:57:34.165Z,-4.49
2023-02-28T03:00:02.652Z,-4.53
2023-02-28T03:02:34.848Z,-4.52
2023-02-28T03:05:07.119Z,-4.52
2023-02-28T03:07:34.797Z,-4.55
2023-02-28T03:10:02.395Z,-4.52
2023-02-28T03:12:35.292Z,-4.51
2023-02-28T03:15:10.516Z,-4.51
2023-02-28T03:17:57.769Z,-4.50
2023-02-28T03:20:35.908Z,-4.53
2023-02-28T03:23:15.786Z,-4.64
2023-02-28T03:25:56.902Z,-4.67
2023-02-28T03:28:32.825Z,-4.64
2023-02-28T03:31:04.559Z,-4.69
2023-02-28T03:33:34.734Z,-4.66
2023-02-28T03:36:07.364Z,-4.66
2023-02-28T03:38:38.019Z,-4.63
2023-02-28T03:41:16.436Z,-4.63
2023-02-28T03:43:48.400Z,-4.62
2023-02-28T03:46:22.070Z,-4.62
2023-02-28T03:48:53.606Z,-4.64
2023-02-28T03:51:25.148Z,-4.65
2023-02-28T03:53:55.662Z,-4.66
2023-02-28T03:56:25.481Z,-4.65
2023-02-28T03:58:57.348Z,-4.65
2023-02-28T04:01:25.769Z,-4.66
2023-02-28T04:03:53.734Z,-4.62
2023-02-28T04:06:23.629Z,-4.61
2023-02-28T04:08:51.351Z,-4.62
2023-02-28T04:11:23.582Z,-4.61
2023-02-28T04:13:51.312Z,-4.66
2023-02-28T04:16:33.506Z,-4.63
2023-02-28T04:19:04.119Z,-4.63
2023-02-28T04:21:34.240Z,-4.61
2023-02-28T04:24:02.511Z,-4.64
2023-02-28T04:26:31.884Z,-4.62
2023-02-28T04:28:59.738Z,-4.61
2023-02-28T04:31:27.665Z,-4.58
2023-02-28T04:33:55.506Z,-4.53
2023-02-28T04:36:24.196Z,-4.52
2023-02-28T04:38:53.407Z,-4.50
2023-02-28T04:41:21.425Z,-4.49
2023-02-28T04:43:49.221Z,-4.46
2023-02-28T04:46:16.828Z,-4.45
2023-02-28T04:48:45.293Z,-4.42
2023-02-28T04:51:15.444Z,-4.42
2023-02-28T04:53:44.354Z,-4.39
2023-02-28T04:56:14.875Z,-4.34
2023-02-28T04:58:42.694Z,-4.37
2023-02-28T05:01:20.088Z,-4.32
2023-02-28T05:03:48.061Z,-4.28
2023-02-28T05:06:16.228Z,-4.24
2023-02-28T05:08:43.872Z,-4.23
2023-02-28T05:11:20.539Z,-4.19
2023-02-28T05:13:48.842Z,-4.14
2023-02-28T05:16:17.045Z,-4.11
2023-02-28T05:18:44.829Z,-4.07
2023-02-28T05:21:34.097Z,-4.02
2023-02-28T05:24:03.083Z,-3.99
2023-02-28T05:26:32.605Z,-3.97
2023-02-28T05:29:00.205Z,-3.93
2023-02-28T05:32:29.768Z,-3.91
2023-02-28T05:34:57.388Z,-3.93
2023-02-28T05:37:24.954Z,-3.85
2023-02-28T05:39:52.479Z,-3.88
2023-02-28T05:42:21.447Z,-3.87
2023-02-28T05:44:49.268Z,-3.85
2023-02-28T05:47:17.875Z,-3.87
2023-02-28T05:49:45.457Z,-3.82
2023-02-28T05:52:13.056Z,-3.81
2023-02-28T05:54:40.656Z,-3.75
2023-02-28T05:57:18.931Z,-3.76
2023-02-28T05:59:53.182Z,-3.79
2023-02-28T06:02:20.820Z,-3.76
2023-02-28T06:04:48.475Z,-3.71
2023-02-28T06:07:16.076Z,-3.74
2023-02-28T06:09:43.674Z,-3.75
2023-02-28T06:12:12.353Z,-3.69
2023-02-28T06:14:39.959Z,-3.75
2023-02-28T06:17:08.914Z,-3.72
2023-02-28T06:19:37.891Z,-3.73
2023-02-28T06:22:05.489Z,-3.66
2023-02-28T06:24:33.382Z,-3.64
2023-02-28T06:27:05.849Z,-3.62
2023-02-28T06:29:33.958Z,-3.67
2023-02-28T06:32:01.598Z,-3.68
2023-02-28T06:34:30.557Z,-3.63
2023-02-28T06:36:58.124Z,-3.64
2023-02-28T06:39:25.708Z,-3.57
2023-02-28T06:41:56.015Z,-3.53
2023-02-28T06:44:24.770Z,-3.56
2023-02-28T06:46:52.651Z,-3.51
2023-02-28T06:49:20.251Z,-3.54
2023-02-28T06:51:49.175Z,-3.59
2023-02-28T06:54:16.739Z,-3.59
2023-02-28T06:56:44.516Z,-3.58
2023-02-28T06:59:12.081Z,-3.56
2023-02-28T07:01:39.933Z,-3.52
2023-02-28T07:04:07.945Z,-3.49
2023-02-28T07:06:35.541Z,-3.61
2023-02-28T07:09:06.022Z,-3.50
2023-02-28T07:11:33.784Z,-3.49
2023-02-28T07:14:01.328Z,-3.43
2023-02-28T07:16:29.099Z,-3.46
2023-02-28T07:18:56.983Z,-3.43
2023-02-28T07:21:24.620Z,-3.39
2023-02-28T07:23:52.394Z,-3.49
2023-02-28T07:26:22.884Z,-3.50
2023-02-28T07:28:50.570Z,-3.44
2023-02-28T07:31:19.434Z,-3.37
2023-02-28T07:33:47.131Z,-3.31
2023-02-28T07:36:18.084Z,-3.26
2023-02-28T07:38:48.615Z,-3.24
2023-02-28T07:41:17.051Z,-3.17
2023-02-28T07:43:46.509Z,-3.13
2023-02-28T07:46:16.805Z,-3.11
2023-02-28T07:48:44.846Z,-3.11
2023-02-28T07:51:12.448Z,-3.23
2023-02-28T07:53:40.061Z,-3.18
2023-02-28T07:56:08.871Z,-3.26
2023-02-28T07:58:36.480Z,-3.25
2023-02-28T08:01:08.788Z,-3.16
2023-02-28T08:03:36.964Z,-3.13
2023-02-28T08:06:05.099Z,-3.03
2023-02-28T08:08:33.232Z,-3.03
2023-02-28T08:11:02.343Z,-2.95
2023-02-28T08:13:30.656Z,-2.94
2023-02-28T08:15:58.410Z,-2.91
2023-02-28T08:18:27.526Z,-2.86
2023-02-28T08:20:55.083Z,-2.84
2023-02-28T08:23:22.722Z,-2.90
2023-02-28T08:25:55.249Z,-2.91
2023-02-28T08:28:23.832Z,-2.84
2023-02-28T08:30:52.594Z,-2.96
2023-02-28T08:33:20.202Z,-2.92
2023-02-28T08:35:49.226Z,-2.86
2023-02-28T08:38:16.884Z,-2.91
2023-02-28T08:40:44.481Z,-2.95
2023-02-28T08:43:12.084Z,-2.91
2023-02-28T08:45:39.805Z,-2.82
2023-02-28T08:48:07.472Z,-2.77
2023-02-28T08:50:35.110Z,-2.72
2023-02-28T08:53:04.122Z,-2.62
2023-02-28T08:55:31.783Z,-2.62
2023-02-28T08:57:59.470Z,-2.56
2023-02-28T09:00:27.266Z,-2.57
2023-02-28T09:02:55.677Z,-2.64
2023-02-28T09:05:24.027Z,-2.67
2023-02-28T09:07:51.792Z,-2.74
2023-02-28T09:10:20.807Z,-2.71
2023-02-28T09:12:48.423Z,-2.76
2023-02-28T09:15:15.987Z,-2.76
2023-02-28T09:17:46.728Z,-2.61
2023-02-28T09:20:14.659Z,-2.50
2023-02-28T09:22:42.246Z,-2.42
2023-02-28T09:25:09.903Z,-2.47
2023-02-28T09:27:39.142Z,-2.43
2023-02-28T09:30:08.133Z,-2.50
2023-02-28T09:32:35.702Z,-2.47
2023-02-28T09:35:03.321Z,-2.37
2023-02-28T09:37:31.975Z,-2.30
2023-02-28T09:39:59.668Z,-2.31
2023-02-28T09:42:33.520Z,-2.24
2023-02-28T09:45:04.605Z,-2.19
2023-02-28T09:47:34.448Z,-2.20
2023-02-28T09:50:06.666Z,-2.22
2023-02-28T09:52:35.040Z,-2.19
2023-02-28T09:55:08.327Z,-2.20
2023-02-28T09:57:40.150Z,-2.07
2023-02-28T10:00:18.250Z,-2.01
2023-02-28T10:03:20.626Z,-2.09
2023-02-28T10:05:53.048Z,-2.13
2023-02-28T10:08:26.007Z,-2.01
2023-02-28T10:10:56.598Z,-1.93
2023-02-28T10:13:27.341Z,-1.89
2023-02-28T10:15:59.757Z,-1.78
2023-02-28T10:18:29.553Z,-1.74
2023-02-28T10:20:57.875Z,-1.73
2023-02-28T10:23:28.372Z,-1.68
2023-02-28T10:25:59.578Z,-1.90
2023-02-28T10:28:27.784Z,-1.95
2023-02-28T10:30:57.166Z,-1.89
2023-02-28T10:33:26.700Z,-1.79
2023-02-28T10:35:54.883Z,-1.70
2023-02-28T10:38:24.518Z,-1.76
2023-02-28T10:40:52.952Z,-1.60
2023-02-28T10:43:23.001Z,-1.61
2023-02-28T10:46:01.506Z,-1.62
2023-02-28T10:48:35.307Z,-1.69
2023-02-28T10:51:04.964Z,-1.69
2023-02-28T10:53:44.676Z,-1.54
2023-02-28T10:56:24.567Z,-1.67
2023-02-28T10:58:56.096Z,-1.74
2023-02-28T11:01:26.874Z,-1.49
2023-02-28T11:03:54.977Z,-1.42
2023-02-28T11:06:24.174Z,-1.40
2023-02-28T11:08:56.574Z,-1.29
2023-02-28T11:11:31.090Z,-1.27
2023-02-28T11:14:04.968Z,-1.19
2023-02-28T11:16:37.678Z,-1.12
2023-02-28T11:19:06.473Z,-1.00
2023-02-28T11:21:35.834Z,-0.89
2023-02-28T11:24:06.526Z,-0.91
2023-02-28T11:26:38.894Z,-0.91
2023-02-28T11:29:14.310Z,-0.99
2023-02-28T11:31:43.258Z,-0.92
2023-02-28T11:34:26.696Z,-0.80
2023-02-28T11:36:56.952Z,-0.72
2023-02-28T11:39:25.444Z,-0.66
2023-02-28T11:42:06.633Z,-0.57
2023-02-28T11:44:45.744Z,-0.62
2023-02-28T11:47:19.923Z,-0.44
2023-02-28T11:49:52.522Z,-0.32
2023-02-28T11:52:23.828Z,-0.57
2023-02-28T11:54:59.320Z,-0.47
2023-02-28T11:57:35.181Z,-0.38
2023-02-28T12:00:08.724Z,-0.20
2023-02-28T12:02:45.197Z,-0.26
2023-02-28T12:05:20.886Z,-0.46
2023-02-28T12:07:56.048Z,-0.33
2023-02-28T12:10:26.655Z,-0.24
2023-02-28T12:13:06.851Z,-0.02
2023-02-28T12:15:51.047Z,0.09
2023-02-28T12:18:30.976Z,0.09
2023-02-28T12:21:03.757Z,0.18
2023-02-28T12:23:49.196Z,0.29
2023-02-28T12:26:20.057Z,0.22
2023-02-28T12:28:51.388Z,0.29
2023-02-28T12:31:20.695Z,0.22
2023-02-28T12:33:52.752Z,0.50
2023-02-28T12:36:22.976Z,0.72
2023-02-28T12:38:57.400Z,0.95
2023-02-28T12:41:29.702Z,1.13
2023-02-28T12:44:02.506Z,1.10
2023-02-28T12:46:35.589Z,1.32
2023-02-28T12:49:10.678Z,1.56
2023-02-28T12:51:38.915Z,1.55
2023-02-28T12:54:12.725Z,1.46
2023-02-28T12:56:46.011Z,1.44
2023-02-28T12:59:21.548Z,1.48
2023-02-28T13:02:01.383Z,1.47
2023-02-28T13:04:51.383Z,1.33
2023-02-28T13:07:44.725Z,1.15
2023-02-28T13:10:12.595Z,1.11
2023-02-28T13:12:50.138Z,1.06
2023-02-28T13:15:22.813Z,1.02
2023-02-28T13:17:52.388Z,1.08
2023-02-28T13:20:23.238Z,1.05
2023-02-28T13:22:54.195Z,0.93
2023-02-28T13:25:58.690Z,1.02
2023-02-28T13:29:09.323Z,0.89
2023-02-28T13:32:14.202Z,0.89
2023-02-28T13:34:43.166Z,0.85
2023-02-28T13:37:35.473Z,0.83
2023-02-28T13:40:28.623Z,0.88
2023-02-28T13:42:56.233Z,0.84
2023-02-28T13:45:26.609Z,0.90
2023-02-28T13:47:56.162Z,1.01
2023-02-28T13:50:32.173Z,1.04
2023-02-28T13:53:30.986Z,1.19
2023-02-28T13:56:05.499Z,1.23
2023-02-28T13:58:43.736Z,1.35
2023-02-28T14:01:24.037Z,1.48
2023-02-28T14:04:04.665Z,1.55
2023-02-28T14:06:33.856Z,1.35
2023-02-28T14:09:08.346Z,1.24
2023-02-28T14:11:37.151Z,1.31
2023-02-28T14:14:05.363Z,1.34
2023-02-28T14:16:40.281Z,1.41
2023-02-28T14:19:13.756Z,1.24
2023-02-28T14:21:47.962Z,1.42
2023-02-28T14:24:28.523Z,1.51
2023-02-28T14:27:17.812Z,1.52
2023-02-28T14:30:13.573Z,1.56
2023-02-28T14:32:46.198Z,1.45
2023-02-28T14:35:23.643Z,1.53
2023-02-28T14:37:51.614Z,1.47
2023-02-28T14:40:24.979Z,1.48
2023-02-28T14:42:58.196Z,1.54
2023-02-28T14:45:26.060Z,1.59
2023-02-28T14:47:54.096Z,1.63
2023-02-28T14:50:23.589Z,1.54
2023-02-28T14:52:54.282Z,1.48
2023-02-28T14:55:26.953Z,1.54
2023-02-28T14:57:56.040Z,1.51
2023-02-28T15:00:26.337Z,1.44
2023-02-28T15:02:54.896Z,1.38
2023-02-28T15:05:28.104Z,1.40
2023-02-28T15:08:14.822Z,1.39
2023-02-28T15:10:45.103Z,1.38
2023-02-28T15:13:15.478Z,1.39
2023-02-28T15:16:00.933Z,1.40
2023-02-28T15:18:33.783Z,1.34
2023-02-28T15:21:02.313Z,1.34
2023-02-28T15:23:30.425Z,1.32
2023-02-28T15:25:59.917Z,1.28
2023-02-28T15:28:27.864Z,1.20
2023-02-28T15:30:58.838Z,1.23
2023-02-28T15:33:28.837Z,1.22
2023-02-28T15:36:15.700Z,1.24
2023-02-28T15:38:44.847Z,1.20
2023-02-28T15:41:26.280Z,1.23
2023-02-28T15:44:18.926Z,1.22
2023-02-28T15:46:56.595Z,1.22
2023-02-28T15:49:25.403Z,1.17
2023-02-28T15:51:54.205Z,1.17
2023-02-28T15:54:25.391Z,1.16
2023-02-28T15:56:56.267Z,1.10
2023-02-28T15:59:25.974Z,1.14
2023-02-28T16:02:15.681Z,1.17
2023-02-28T16:05:01.173Z,1.21
2023-02-28T16:07:29.238Z,1.23
2023-02-28T16:09:56.905Z,1.20
2023-02-28T16:12:28.317Z,1.22
2023-02-28T16:14:57.359Z,1.16
2023-02-28T16:17:26.706Z,1.13
2023-02-28T16:19:54.545Z,1.16
2023-02-28T16:22:22.227Z,1.14
2023-02-28T16:24:50.109Z,1.11
2023-02-28T16:27:21.012Z,1.15
2023-02-28T16:29:50.656Z,1.06
2023-02-28T16:32:18.560Z,1.01
2023-02-28T16:34:46.727Z,0.99
2023-02-28T16:37:15.849Z,0.90
2023-02-28T16:39:44.373Z,0.93
2023-02-28T16:42:17.693Z,0.93
2023-02-28T16:44:45.383Z,0.91
2023-02-28T16:47:14.543Z,0.88
2023-02-28T16:49:44.150Z,0.85
2023-02-28T16:52:12.715Z,0.87
2023-02-28T16:54:40.301Z,0.86
2023-02-28T16:57:09.237Z,0.84
2023-02-28T16:59:36.826Z,0.78
2023-02-28T17:02:14.064Z,0.72
2023-02-28T17:04:41.789Z,0.67
2023-02-28T17:07:13.342Z,0.63
2023-02-28T17:09:43.520Z,0.60
2023-02-28T17:12:13.022Z,0.55
2023-02-28T17:14:40.616Z,0.56
2023-02-28T17:17:08.679Z,0.58
2023-02-28T17:19:39.226Z,0.61
2023-02-28T17:22:07.002Z,0.63
2023-02-28T17:24:34.604Z,0.56
2023-02-28T17:27:02.401Z,0.55
2023-02-28T17:29:30.034Z,0.55
2023-02-28T17:32:00.801Z,0.48
2023-02-28T17:34:30.625Z,0.44
2023-02-28T17:36:59.612Z,0.44
2023-02-28T17:39:28.312Z,0.45
2023-02-28T17:41:56.825Z,0.47
2023-02-28T17:44:25.993Z,0.44
2023-02-28T17:46:54.305Z,0.44
2023-02-28T17:49:22.689Z,0.46
2023-02-28T17:51:51.439Z,0.46
2023-02-28T17:54:20.884Z,0.38
2023-02-28T17:56:48.561Z,0.37
2023-02-28T17:59:16.456Z,0.31
2023-02-28T18:01:44.213Z,0.28
2023-02-28T18:04:11.905Z,0.26
2023-02-28T18:06:47.103Z,0.27
2023-02-28T18:09:15.059Z,0.25
2023-02-28T18:11:45.498Z,0.27
2023-02-28T18:14:13.557Z,0.30
2023-02-28T18:16:41.139Z,0.27
2023-02-28T18:19:09.982Z,0.29
2023-02-28T18:21:37.546Z,0.28
2023-02-28T18:24:05.724Z,0.26
2023-02-28T18:26:33.322Z,0.30
2023-02-28T18:29:02.277Z,0.29
2023-02-28T18:31:32.382Z,0.29
2023-02-28T18:34:00.373Z,0.26
2023-02-28T18:36:29.465Z,0.25
2023-02-28T18:38:57.248Z,0.24
2023-02-28T18:41:24.870Z,0.21
2023-02-28T18:43:54.176Z,0.23
2023-02-28T18:46:23.176Z,0.23
2023-02-28T18:48:51.058Z,0.25
2023-02-28T18:51:20.933Z,0.24
2023-02-28T18:53:48.860Z,0.22
2023-02-28T18:56:18.220Z,0.21
2023-02-28T18:58:46.025Z,0.21
2023-02-28T19:01:17.535Z,0.21
2023-02-28T19:03:46.616Z,0.20
2023-02-28T19:06:14.665Z,0.21
2023-02-28T19:08:42.285Z,0.16
2023-02-28T19:11:10.124Z,0.02
2023-02-28T19:13:38.324Z,0.05
2023-02-28T19:16:08.493Z,0.04
2023-02-28T19:18:36.314Z,-0.01
2023-02-28T19:21:07.525Z,0.02
2023-02-28T19:23:35.501Z,0.02
2023-02-28T19:26:07.024Z,0.04
2023-02-28T19:28:34.639Z,0.04
2023-02-28T19:31:02.254Z,0.07
2023-02-28T19:33:30.081Z,0.07
2023-02-28T19:36:00.864Z,0.03
2023-02-28T19:38:29.918Z,-0.04
2023-02-28T19:41:03.772Z,0.02
2023-02-28T19:43:31.680Z,0.05
2023-02-28T19:45:59.360Z,0.02
2023-02-28T19:48:28.355Z,0.02
2023-02-28T19:50:59.632Z,0.06
2023-02-28T19:53:27.308Z,0.08
2023-02-28T19:55:56.442Z,-0.07
2023-02-28T19:58:24.426Z,-0.19
2023-02-28T20:00:52.042Z,-0.20
2023-02-28T20:03:19.867Z,-0.17
2023-02-28T20:05:48.188Z,-0.17
2023-02-28T20:08:15.833Z,-0.15
2023-02-28T20:10:43.441Z,-0.07
2023-02-28T20:13:12.410Z,-0.02
2023-02-28T20:15:39.988Z,0.04
2023-02-28T20:18:07.551Z,0.05
2023-02-28T20:20:37.449Z,0.01
2023-02-28T20:23:05.430Z,0.02
2023-02-28T20:25:33.194Z,0.03
2023-02-28T20:28:00.745Z,0.05
2023-02-28T20:30:29.798Z,0.07
2023-02-28T20:32:57.463Z,0.08
2023-02-28T20:35:25.132Z,0.09
2023-02-28T20:37:53.099Z,0.11
2023-02-28T20:40:20.782Z,0.12
2023-02-28T20:42:48.334Z,0.11
2023-02-28T20:45:15.977Z,0.14
2023-02-28T20:47:45.027Z,0.16
2023-02-28T20:50:13.584Z,0.15
2023-02-28T20:52:41.176Z,0.17
2023-02-28T20:55:09.511Z,0.15
2023-02-28T20:57:37.160Z,0.18
2023-02-28T21:00:09.184Z,0.15
2023-02-28T21:02:36.742Z,0.13
2023-02-28T21:05:07.264Z,0.13
2023-02-28T21:07:34.881Z,0.12
2023-02-28T21:10:02.502Z,0.13
2023-02-28T21:12:30.177Z,0.16
2023-02-28T21:14:57.794Z,0.17
2023-02-28T21:17:25.477Z,0.14
2023-02-28T21:19:53.076Z,0.13
2023-02-28T21:22:22.003Z,0.14
2023-02-28T21:24:49.590Z,0.16
2023-02-28T21:27:17.297Z,0.17
2023-02-28T21:29:44.911Z,0.16
2023-02-28T21:32:12.549Z,0.17
2023-02-28T21:34:41.517Z,0.19
2023-02-28T21:37:09.346Z,0.18
2023-02-28T21:39:38.338Z,0.20
2023-02-28T21:42:06.022Z,0.21
2023-02-28T21:44:34.582Z,0.23
2023-02-28T21:47:02.579Z,0.25
2023-02-28T21:49:30.768Z,0.24
2023-02-28T21:51:58.542Z,0.25
2023-02-28T21:54:26.506Z,0.28
2023-02-28T21:56:56.528Z,0.30
2023-02-28T21:59:24.465Z,0.30
2023-02-28T22:01:52.262Z,0.32
2023-02-28T22:04:22.360Z,0.34
2023-02-28T22:06:52.355Z,0.35
2023-02-28T22:09:20.087Z,0.33
2023-02-28T22:11:48.051Z,0.35
2023-02-28T22:14:17.019Z,0.36
2023-02-28T22:16:54.474Z,0.38
2023-02-28T22:19:23.308Z,0.31
2023-02-28T22:21:51.639Z,0.33
2023-02-28T22:24:20.705Z,0.32
2023-02-28T22:26:49.785Z,0.31
2023-02-28T22:29:18.823Z,0.29
2023-02-28T22:31:46.608Z,0.31
2023-02-28T22:34:14.476Z,0.30
2023-02-28T22:36:42.516Z,0.32
2023-02-28T22:39:11.034Z,0.33
2023-02-28T22:41:39.113Z,0.32
2023-02-28T22:44:07.502Z,0.30
2023-02-28T22:46:37.046Z,0.30
2023-02-28T22:49:06.039Z,0.27
2023-02-28T22:51:33.739Z,0.29
2023-02-28T22:54:02.064Z,0.26
2023-02-28T22:56:30.685Z,0.27
2023-02-28T22:58:59.977Z,0.25
2023-02-28T23:01:29.584Z,0.25
2023-02-28T23:03:59.443Z,0.26
2023-02-28T23:06:29.806Z,0.23
2023-02-28T23:08:59.426Z,0.25
2023-02-28T23:11:30.276Z,0.24
2023-02-28T23:14:01.107Z,0.24
2023-02-28T23:16:30.546Z,0.22
2023-02-28T23:19:02.792Z,0.26
2023-02-28T23:21:30.391Z,0.28
2023-02-28T23:23:58.187Z,0.27
2023-02-28T23:26:25.958Z,0.24
2023-02-28T23:28:53.551Z,0.22
2023-02-28T23:31:21.430Z,0.22
2023-02-28T23:33:49.415Z,0.21
2023-02-28T23:36:18.443Z,0.20
2023-02-28T23:38:49.218Z,0.10
2023-02-28T23:41:18.537Z,0.14
2023-02-28T23:43:46.186Z,0.18
2023-02-28T23:46:14.698Z,0.19
2023-02-28T23:48:42.807Z,0.21
2023-02-28T23:51:11.981Z,0.20
2023-02-28T23:53:42.460Z,0.20
2023-02-28T23:56:14.673Z,0.20
2023-02-28T23:58:42.906Z,0.14
